Pittsburgh, Pennsylvania
Current Conditions -  °F | °C
As of 7:53 AM on Wednesday 26 Nov 2014 (Local Time) from KAGC Reporting Station
Overcast Overcast  
Wind Chill: -3°   Ceiling: 9000
Heat Index:   Visibility: 10mi
Dew Point: -5°   Wind: 5mph
Humidity: 69%   Direction: 350°N
Pressure: 30.05"   Gusts: NA
Location:  40.44°N, 80°W
Report Text: KAGC 261253Z AUTO 35004KT 10SM OVC090 00/M05 A3005 RMK AO2 SLP193 T00001050 TSNO
Loading
Personal Weather Stations






























Interactive Weather Map New forecast layout! Learn more

10-Day Weather Forecast

Advertisements
Track Severe Weather on mobile